createdAt,value
2023-07-18T00:03:08.880Z,1012.575
2023-07-18T00:23:07.968Z,1012.448
2023-07-18T00:43:08.129Z,1012.425
2023-07-18T01:03:08.414Z,1012.326
2023-07-18T01:23:08.181Z,1012.325
2023-07-18T01:43:07.450Z,1012.384
2023-07-18T02:03:08.999Z,1012.441
2023-07-18T02:23:08.266Z,1012.304
2023-07-18T02:43:07.448Z,1012.286
2023-07-18T03:03:08.898Z,1012.226
2023-07-18T03:23:08.424Z,1012.227
2023-07-18T03:43:07.542Z,1012.109
2023-07-18T04:03:08.766Z,1012.073
2023-07-18T04:23:07.981Z,1012.01
2023-07-18T04:43:07.288Z,1011.981
2023-07-18T05:03:08.581Z,1011.95
2023-07-18T05:23:07.871Z,1012.025
2023-07-18T05:43:08.031Z,1012.035
2023-07-18T06:03:09.469Z,1011.977
2023-07-18T06:23:07.899Z,1012.103
2023-07-18T06:43:08.215Z,1012.117
2023-07-18T07:03:08.552Z,1012.068
2023-07-18T07:23:07.805Z,1011.929
2023-07-18T07:43:08.134Z,1011.701
2023-07-18T08:03:08.254Z,1011.65
2023-07-18T08:23:07.584Z,1011.472
2023-07-18T08:43:07.788Z,1011.312
2023-07-18T09:03:09.020Z,1011.113
2023-07-18T09:23:08.372Z,1010.828
2023-07-18T09:43:07.636Z,1010.648
2023-07-18T10:03:08.990Z,1010.522
2023-07-18T10:23:08.214Z,1010.352
2023-07-18T10:43:07.296Z,1010.444
2023-07-18T11:03:08.420Z,1010.462
2023-07-18T11:23:07.722Z,1010.168
2023-07-18T11:43:08.038Z,1009.892
2023-07-18T12:03:09.385Z,1009.545
2023-07-18T12:23:08.163Z,1009.239
2023-07-18T12:43:07.342Z,1008.948
2023-07-18T13:03:08.908Z,1009.062
2023-07-18T13:23:08.264Z,1009.011
2023-07-18T13:43:07.735Z,1008.821
2023-07-18T14:03:37.324Z,1008.77
2023-07-18T14:23:07.703Z,1008.48
2023-07-18T14:43:08.003Z,1007.964
2023-07-18T15:03:09.546Z,1007.63
2023-07-18T15:23:07.930Z,1007.437
2023-07-18T15:43:08.208Z,1007.203
2023-07-18T16:03:08.810Z,1007.08
2023-07-18T16:23:08.086Z,1006.904
2023-07-18T16:43:07.366Z,1006.795
2023-07-18T17:03:08.727Z,1006.623
2023-07-18T17:23:08.034Z,1006.431
2023-07-18T17:43:07.348Z,1006.223
2023-07-18T18:03:08.805Z,1006.04
2023-07-18T18:23:07.716Z,1005.871
2023-07-18T18:43:08.042Z,1005.73
2023-07-18T19:03:09.730Z,1005.546
2023-07-18T19:23:08.178Z,1005.582
2023-07-18T19:43:07.561Z,1005.77
2023-07-18T20:03:09.022Z,1005.926
2023-07-18T20:23:08.517Z,1005.754
2023-07-18T20:43:08.020Z,1005.726
2023-07-18T21:03:09.295Z,1005.818
2023-07-18T21:23:07.496Z,1005.759
2023-07-18T21:43:08.111Z,1005.625
2023-07-18T22:03:08.688Z,1005.535
2023-07-18T22:23:07.791Z,1005.555
2023-07-18T22:43:07.780Z,1005.474
2023-07-18T23:03:09.116Z,1005.417
2023-07-18T23:23:08.363Z,1005.317
2023-07-18T23:43:07.522Z,1005.115
